Time;durP1;ratioP1;P1;durP2;ratioP2;P2;SDS_P1;SDS_P2;PMS_P1;PMS_P2;Temp;Humidity;BMP_temperature;BMP_pressure;BME280_temperature;BME280_humidity;BME280_pressure;Samples;Min_cycle;Max_cycle;Signal;HPM_P1;HPM_P2
2022/07/10 10:26:30;;;;;;;0.88;0.40;;;36.10;36.50;;;;;;5068200;28;20396;-76
2022/07/10 10:28:59;;;;;;;1.90;0.35;;;35.40;34.70;;;;;;5068064;28;20099;-76
2022/07/10 10:31:26;;;;;;;0.80;0.50;;;35.40;36.60;;;;;;5066580;28;20078;-76
2022/07/10 10:33:55;;;;;;;1.30;0.40;;;35.00;39.80;;;;;;5048002;28;20021;-77
2022/07/10 10:36:44;;;;;;;1.98;0.40;;;35.50;39.00;;;;;;5048126;28;20104;-77
2022/07/10 10:39:12;;;;;;;0.73;0.30;;;36.30;35.80;;;;;;5055188;28;20017;-76
2022/07/10 10:41:40;;;;;;;1.08;0.50;;;36.50;34.40;;;;;;5047293;28;20046;-77
2022/07/10 10:44:09;;;;;;;1.75;0.30;;;37.30;35.00;;;;;;5048121;28;20079;-74
2022/07/10 10:47:01;;;;;;;1.85;0.30;;;37.90;32.80;;;;;;5047999;28;20021;-75
2022/07/10 10:49:48;;;;;;;2.92;0.40;;;38.10;32.20;;;;;;5047812;28;20447;-74
2022/07/10 10:52:15;;;;;;;1.90;0.40;;;38.30;31.40;;;;;;5043714;28;20021;-75
2022/07/10 10:54:56;;;;;;;0.85;0.20;;;38.00;33.00;;;;;;5048083;28;20044;-75
2022/07/10 10:57:32;;;;;;;1.13;0.30;;;38.40;32.10;;;;;;5053044;28;20021;-74
2022/07/10 10:59:59;;;;;;;2.10;0.20;;;39.00;31.50;;;;;;5047837;28;20033;-74
2022/07/10 11:02:26;;;;;;;1.10;0.20;;;39.00;33.10;;;;;;5047938;28;20017;-75
2022/07/10 11:05:18;;;;;;;1.02;0.30;;;39.60;31.70;;;;;;5047705;28;20017;-74
2022/07/10 11:08:00;;;;;;;1.20;0.40;;;39.50;32.30;;;;;;5043334;28;20049;-74
2022/07/10 11:10:36;;;;;;;0.63;0.30;;;39.50;30.80;;;;;;5047569;28;20528;-74
2022/07/10 11:13:26;;;;;;;0.25;0.20;;;40.00;30.70;;;;;;5061298;23;20048;-74
2022/07/10 11:15:53;;;;;;;1.08;0.30;;;39.70;30.00;;;;;;5047525;28;20017;-75
2022/07/10 11:18:24;;;;;;;1.42;0.28;;;39.70;29.70;;;;;;5046699;28;20540;-75
2022/07/10 11:20:53;;;;;;;1.27;0.10;;;39.90;31.00;;;;;;5048059;28;20021;-76
2022/07/10 11:23:24;;;;;;;1.45;0.10;;;39.60;30.00;;;;;;5030366;28;20510;-76
2022/07/10 11:26:10;;;;;;;1.08;0.35;;;40.10;31.30;;;;;;5039195;28;20038;-77
2022/07/10 11:29:01;;;;;;;0.50;0.10;;;40.70;30.70;;;;;;5034833;28;20083;-76
2022/07/10 11:31:27;;;;;;;0.75;0.38;;;41.50;29.20;;;;;;5045409;28;20377;-76
2022/07/10 11:33:55;;;;;;;0.75;0.30;;;40.60;28.70;;;;;;5046369;28;20029;-75
2022/07/10 11:36:33;;;;;;;0.95;0.20;;;40.10;29.10;;;;;;5030570;28;20061;-74
2022/07/10 11:39:04;;;;;;;0.90;0.30;;;40.00;29.80;;;;;;5007637;28;20026;-74
2022/07/10 11:41:30;;;;;;;;;;;39.50;29.60;;;;;;5019975;28;20471;-74
2022/07/10 11:44:03;;;;;;;0.63;0.30;;;39.60;30.00;;;;;;5025368;28;19920;-74
2022/07/10 11:46:32;;;;;;;1.48;0.30;;;39.50;29.10;;;;;;5014985;28;20029;-74
2022/07/10 11:48:58;;;;;;;0.60;0.30;;;39.60;29.80;;;;;;5030595;28;20025;-75
2022/07/10 11:51:29;;;;;;;1.77;0.40;;;40.00;30.00;;;;;;5013821;28;20042;-74
2022/07/10 11:53:57;;;;;;;0.70;0.20;;;40.90;29.70;;;;;;5021863;28;20009;-74
2022/07/10 11:56:24;;;;;;;0.85;0.63;;;40.30;29.50;;;;;;5029183;28;20068;-74
2022/07/10 11:59:03;;;;;;;0.77;0.30;;;40.80;29.80;;;;;;5031243;28;20068;-73
2022/07/10 12:01:32;;;;;;;1.10;0.35;;;40.50;28.30;;;;;;5030139;28;20056;-74
2022/07/10 12:04:03;;;;;;;1.30;0.32;;;40.80;29.30;;;;;;5031837;28;20021;-73
2022/07/10 12:06:31;;;;;;;1.15;0.30;;;40.80;29.50;;;;;;5012925;28;20018;-73
2022/07/10 12:09:04;;;;;;;0.30;0.20;;;40.50;28.40;;;;;;5020118;28;20025;-74
2022/07/10 12:11:30;;;;;;;1.33;0.30;;;40.50;28.70;;;;;;5028961;28;20114;-74
2022/07/10 12:14:18;;;;;;;1.02;0.30;;;40.10;28.70;;;;;;5018036;28;20379;-75
2022/07/10 12:16:46;;;;;;;0.80;0.32;;;40.10;29.80;;;;;;5022707;28;20063;-76
2022/07/10 12:19:15;;;;;;;0.73;0.30;;;40.70;29.50;;;;;;5023854;28;20029;-74
2022/07/10 12:21:42;;;;;;;0.77;0.30;;;40.70;29.50;;;;;;5031262;28;20359;-73
2022/07/10 12:24:09;;;;;;;1.58;0.20;;;40.60;28.70;;;;;;5031540;28;20080;-73
2022/07/10 12:26:41;;;;;;;0.63;0.30;;;40.80;28.30;;;;;;5031782;28;20021;-74
2022/07/10 12:29:18;;;;;;;0.95;0.22;;;40.90;29.20;;;;;;5018389;28;20014;-74
2022/07/10 12:31:47;;;;;;;2.17;0.32;;;40.40;29.40;;;;;;5021203;28;20025;-74
2022/07/10 12:34:13;;;;;;;1.05;0.40;;;40.00;29.60;;;;;;5022585;28;20126;-74
2022/07/10 12:36:43;;;;;;;1.25;0.40;;;40.90;29.00;;;;;;5031428;28;20425;-75
2022/07/10 12:39:09;;;;;;;1.75;0.35;;;41.30;29.60;;;;;;5017159;28;20072;-74
2022/07/10 12:41:52;;;;;;;0.40;0.20;;;41.40;28.80;;;;;;5015094;28;20034;-74
2022/07/10 12:44:39;;;;;;;1.05;0.20;;;41.20;28.30;;;;;;5021088;28;20393;-73
2022/07/10 12:47:13;;;;;;;1.80;0.40;;;41.30;27.00;;;;;;5030427;28;20029;-74
2022/07/10 12:50:02;;;;;;;0.52;0.30;;;41.30;27.40;;;;;;5030530;28;20041;-75
2022/07/10 12:52:31;;;;;;;1.23;0.28;;;41.10;27.30;;;;;;5031721;28;20021;-74
2022/07/10 12:55:22;;;;;;;1.02;0.25;;;41.30;29.40;;;;;;5030569;28;20474;-74
2022/07/10 12:57:52;;;;;;;;;;;41.80;29.10;;;;;;5031443;28;20117;-73
2022/07/10 13:00:30;;;;;;;2.78;0.22;;;42.00;27.00;;;;;;5031469;28;19979;-74
2022/07/10 13:03:00;;;;;;;0.30;0.20;;;41.80;27.90;;;;;;5019743;28;20413;-74
2022/07/10 13:05:33;;;;;;;0.68;0.15;;;41.50;27.30;;;;;;5030960;28;20032;-74
2022/07/10 13:08:11;;;;;;;1.02;0.22;;;41.80;27.70;;;;;;5031080;28;20048;-74
2022/07/10 13:10:37;;;;;;;1.67;0.30;;;41.60;27.70;;;;;;5031170;28;20041;-73
2022/07/10 13:13:04;;;;;;;0.15;0.10;;;41.00;28.20;;;;;;5019374;23;20045;-77
2022/07/10 13:15:30;;;;;;;0.45;0.20;;;41.20;28.20;;;;;;4990960;28;20125;-76
2022/07/10 13:17:57;;;;;;;1.75;0.30;;;42.10;28.70;;;;;;4992174;28;20026;-78
2022/07/10 13:20:23;;;;;;;0.40;0.13;;;42.10;27.30;;;;;;4992288;28;20083;-77
2022/07/10 13:22:49;;;;;;;0.55;0.30;;;42.80;26.80;;;;;;4990416;28;20407;-77
2022/07/10 13:25:15;;;;;;;0.82;0.30;;;42.10;27.30;;;;;;4990346;28;20077;-75
2022/07/10 13:27:42;;;;;;;0.28;0.28;;;42.10;27.70;;;;;;4989857;28;20030;-76
2022/07/10 13:30:08;;;;;;;0.80;0.30;;;42.10;27.80;;;;;;4989472;28;20018;-75
2022/07/10 13:32:34;;;;;;;0.82;0.30;;;42.30;27.80;;;;;;4988336;28;20112;-76
2022/07/10 13:35:00;;;;;;;1.30;0.52;;;42.50;28.50;;;;;;4989596;28;20046;-77
2022/07/10 13:37:26;;;;;;;0.20;0.10;;;42.30;27.50;;;;;;4991254;28;20062;-77
2022/07/10 13:39:52;;;;;;;0.52;0.28;;;40.70;26.70;;;;;;4990965;28;20026;-76
2022/07/10 13:42:17;;;;;;;0.55;0.20;;;39.80;29.30;;;;;;4988987;28;20041;-76
2022/07/10 13:44:43;;;;;;;0.70;0.40;;;40.70;28.40;;;;;;4982364;28;20057;-77
2022/07/10 13:47:09;;;;;;;2.00;0.50;;;41.30;28.50;;;;;;4978100;28;20432;-77
2022/07/10 13:49:37;;;;;;;1.20;0.40;;;42.00;28.70;;;;;;4990142;28;20391;-75
2022/07/10 13:52:03;;;;;;;0.73;0.30;;;42.30;27.20;;;;;;4990645;28;20014;-77
2022/07/10 13:54:28;;;;;;;0.68;0.28;;;42.40;27.10;;;;;;4989994;28;20039;-76
2022/07/10 13:56:54;;;;;;;1.30;0.20;;;42.00;26.90;;;;;;4986093;28;20106;-77
2022/07/10 13:59:20;;;;;;;0.95;0.30;;;42.20;27.80;;;;;;4988665;28;20061;-77
2022/07/10 14:01:46;;;;;;;0.22;0.20;;;41.10;26.90;;;;;;4983901;28;20387;-76
2022/07/10 14:04:12;;;;;;;1.27;0.20;;;40.70;28.10;;;;;;4980316;28;20034;-76
2022/07/10 14:06:38;;;;;;;2.40;0.20;;;40.40;27.80;;;;;;4990270;28;20014;-76
2022/07/10 14:09:03;;;;;;;1.27;0.30;;;40.50;28.00;;;;;;4975907;28;20526;-78
2022/07/10 14:14:01;;;;;;;0.95;0.30;;;40.40;27.60;;;;;;4991459;28;20054;-78
2022/07/10 14:16:27;;;;;;;1.55;0.20;;;41.00;27.30;;;;;;4996357;28;20480;-78
2022/07/10 14:18:54;;;;;;;0.20;0.20;;;40.90;27.30;;;;;;4998287;28;20041;-78
2022/07/10 14:21:20;;;;;;;0.45;0.20;;;41.10;27.20;;;;;;5002319;28;20113;-77
2022/07/10 14:23:45;;;;;;;1.20;0.40;;;40.20;27.60;;;;;;4999101;28;20118;-78
2022/07/10 14:26:12;;;;;;;0.43;0.35;;;40.20;28.40;;;;;;4991254;28;20034;-78
2022/07/10 14:28:38;;;;;;;0.70;0.20;;;40.40;29.10;;;;;;4998481;28;20079;-77
2022/07/10 14:31:06;;;;;;;0.88;0.20;;;41.60;28.80;;;;;;4999211;28;20019;-77
2022/07/10 14:33:33;;;;;;;0.32;0.30;;;42.20;28.30;;;;;;4997561;28;20109;-77
2022/07/10 14:35:59;;;;;;;0.20;0.20;;;41.30;27.30;;;;;;4998285;28;20026;-78
2022/07/10 14:38:25;;;;;;;0.32;0.20;;;40.80;28.20;;;;;;4999037;28;20022;-78
2022/07/10 14:40:52;;;;;;;1.23;0.20;;;39.80;26.80;;;;;;4994096;28;20045;-80
2022/07/10 14:43:19;;;;;;;1.27;0.30;;;37.20;28.70;;;;;;4999216;28;20026;-79
2022/07/10 14:45:45;;;;;;;0.52;0.40;;;35.50;31.30;;;;;;4997766;28;20026;-78
2022/07/10 14:48:11;;;;;;;0.65;0.35;;;34.80;33.40;;;;;;4997916;28;20033;-78
2022/07/10 14:50:37;;;;;;;1.08;0.30;;;34.10;34.30;;;;;;4998055;28;20029;-78
2022/07/10 14:53:03;;;;;;;0.40;0.40;;;33.70;33.40;;;;;;4997054;28;20026;-78
2022/07/10 14:55:30;;;;;;;0.88;0.63;;;34.00;35.40;;;;;;4996206;28;20057;-77
2022/07/10 14:57:56;;;;;;;2.15;0.30;;;35.00;35.00;;;;;;5000699;28;20054;-80
2022/07/10 15:00:21;;;;;;;0.55;0.30;;;35.80;33.80;;;;;;4998297;28;20058;-78
2022/07/10 15:02:47;;;;;;;0.52;0.45;;;35.90;30.20;;;;;;4997113;28;20093;-77
2022/07/10 15:05:13;;;;;;;0.90;0.30;;;36.70;33.60;;;;;;4991784;28;20022;-77
2022/07/10 15:07:39;;;;;;;0.70;0.30;;;36.90;31.30;;;;;;4993367;28;20391;-78
2022/07/10 15:10:08;;;;;;;0.55;0.40;;;37.50;30.00;;;;;;4990127;28;20058;-77
2022/07/10 15:12:36;;;;;;;1.13;0.32;;;38.20;31.00;;;;;;4996010;28;20665;-78
2022/07/10 15:15:03;;;;;;;2.05;0.30;;;38.20;30.30;;;;;;5001273;28;20247;-78
2022/07/10 15:17:29;;;;;;;2.55;0.43;;;37.50;30.00;;;;;;4999301;28;20109;-77
2022/07/10 15:19:55;;;;;;;1.58;0.40;;;37.70;30.80;;;;;;4997025;28;20030;-78
2022/07/10 15:22:20;;;;;;;0.20;0.20;;;38.40;31.30;;;;;;5000131;28;20032;-78
2022/07/10 15:24:49;;;;;;;1.00;0.10;;;38.60;29.80;;;;;;4996720;28;20026;-78
2022/07/10 15:27:15;;;;;;;0.55;0.40;;;38.90;29.80;;;;;;5001232;28;20114;-79
2022/07/10 15:29:41;;;;;;;0.40;0.20;;;38.90;30.00;;;;;;4998355;28;20087;-78
2022/07/10 15:32:07;;;;;;;0.77;0.30;;;38.60;29.90;;;;;;5003460;28;20099;-78
2022/07/10 15:34:33;;;;;;;0.55;0.40;;;37.00;30.70;;;;;;4993288;28;20491;-78
2022/07/10 15:36:59;;;;;;;1.35;0.20;;;36.20;31.70;;;;;;4993707;28;20088;-78
2022/07/10 15:39:24;;;;;;;2.40;0.55;;;36.10;33.10;;;;;;4996397;28;20053;-78
2022/07/10 15:41:50;;;;;;;0.40;0.30;;;36.40;33.70;;;;;;4992033;28;20097;-79
2022/07/10 15:44:16;;;;;;;0.77;0.30;;;36.20;31.40;;;;;;4996651;28;20053;-78
2022/07/10 15:46:42;;;;;;;0.30;0.30;;;35.40;32.70;;;;;;4999617;28;20139;-78
2022/07/10 15:49:09;;;;;;;0.98;0.35;;;33.80;32.90;;;;;;4993794;28;20042;-78
2022/07/10 15:51:35;;;;;;;0.30;0.30;;;32.10;35.60;;;;;;4995284;28;20030;-78
2022/07/10 15:54:01;;;;;;;0.65;0.50;;;30.80;37.50;;;;;;4996029;28;20021;-82
2022/07/10 15:56:26;;;;;;;0.75;0.40;;;31.00;39.20;;;;;;4998711;28;20402;-78
2022/07/10 15:58:52;;;;;;;1.40;0.40;;;31.60;38.60;;;;;;4995559;28;20690;-78
2022/07/10 16:01:18;;;;;;;0.47;0.30;;;31.80;39.10;;;;;;4995600;28;20033;-78
2022/07/10 16:03:44;;;;;;;1.20;0.40;;;31.50;37.80;;;;;;4995292;28;20042;-79
2022/07/10 16:06:14;;;;;;;2.83;0.52;;;30.70;38.80;;;;;;4997366;28;20018;-78
2022/07/10 16:08:40;;;;;;;0.40;0.40;;;30.20;38.80;;;;;;4996981;28;20030;-78
2022/07/10 16:11:06;;;;;;;0.70;0.45;;;29.80;40.00;;;;;;4994716;28;20486;-79
2022/07/10 16:13:33;;;;;;;0.60;0.40;;;29.30;43.00;;;;;;4997548;28;20035;-78
2022/07/10 16:15:59;;;;;;;0.60;0.40;;;29.20;42.40;;;;;;4994932;28;20026;-77
2022/07/10 16:18:25;;;;;;;1.38;0.52;;;28.90;43.90;;;;;;4995740;28;20546;-79
2022/07/10 16:20:51;;;;;;;1.05;0.40;;;28.50;41.50;;;;;;4990803;28;20117;-79
2022/07/10 16:23:17;;;;;;;1.02;0.50;;;28.20;43.20;;;;;;4985536;28;20025;-77
2022/07/10 16:26:00;;;;;;;1.13;0.50;;;28.10;43.80;;;;;;4985854;28;20041;-78
2022/07/10 16:28:30;;;;;;;0.40;0.30;;;28.10;44.20;;;;;;4978254;28;20128;-76
2022/07/10 16:30:57;;;;;;;0.88;0.60;;;28.00;45.70;;;;;;4985716;28;20069;-76
2022/07/10 16:33:23;;;;;;;1.25;0.30;;;27.90;45.00;;;;;;4988343;28;20084;-78
2022/07/10 16:35:49;;;;;;;0.60;0.50;;;27.80;42.80;;;;;;4985382;28;20030;-77
2022/07/10 16:38:16;;;;;;;2.45;0.40;;;27.60;43.60;;;;;;4985047;28;20076;-79
2022/07/10 16:40:43;;;;;;;0.88;0.40;;;27.60;44.30;;;;;;4988098;28;20529;-78
2022/07/10 16:43:10;;;;;;;1.65;0.50;;;27.60;45.80;;;;;;4993664;28;20079;-76
2022/07/10 16:45:37;;;;;;;0.80;0.60;;;27.70;45.80;;;;;;4992924;28;20105;-79
2022/07/10 16:48:03;;;;;;;0.65;0.30;;;27.70;44.70;;;;;;4996143;28;20033;-78
2022/07/10 16:50:30;;;;;;;0.98;0.47;;;27.60;43.80;;;;;;4996441;28;20026;-78
2022/07/10 16:52:56;;;;;;;0.68;0.60;;;27.60;43.20;;;;;;4991685;28;20022;-78
2022/07/10 16:55:21;;;;;;;0.30;0.30;;;27.40;45.00;;;;;;4992027;28;20019;-80
2022/07/10 16:57:47;;;;;;;0.30;0.30;;;27.20;43.50;;;;;;4991315;28;20065;-79
2022/07/10 17:00:13;;;;;;;0.82;0.40;;;27.10;44.10;;;;;;4991670;28;20026;-79
2022/07/10 17:02:39;;;;;;;1.17;0.32;;;27.20;44.90;;;;;;4991439;28;20527;-80
2022/07/10 17:05:06;;;;;;;1.67;0.60;;;27.10;45.60;;;;;;4992964;28;20049;-79
2022/07/10 17:07:32;;;;;;;0.57;0.30;;;27.00;45.20;;;;;;4992955;28;20030;-79
2022/07/10 17:09:57;;;;;;;2.97;0.70;;;26.80;45.30;;;;;;4993262;28;20033;-79
2022/07/10 17:12:23;;;;;;;0.30;0.22;;;26.60;47.40;;;;;;5022927;23;20068;-76
2022/07/10 17:14:49;;;;;;;0.45;0.30;;;26.40;45.70;;;;;;5031309;28;20516;-77
2022/07/10 17:17:15;;;;;;;0.95;0.40;;;26.00;46.20;;;;;;5030149;28;20135;-76
2022/07/10 17:19:41;;;;;;;1.10;0.60;;;25.70;49.50;;;;;;5031656;28;20388;-75
2022/07/10 17:22:11;;;;;;;0.75;0.40;;;25.70;47.70;;;;;;5031077;28;20013;-75
2022/07/10 17:24:36;;;;;;;0.65;0.50;;;25.50;47.80;;;;;;5030092;28;20021;-75
2022/07/10 17:27:02;;;;;;;2.92;0.50;;;25.40;49.10;;;;;;5029817;28;20040;-76
2022/07/10 17:29:28;;;;;;;2.47;0.60;;;25.30;47.90;;;;;;5022636;28;20021;-77
2022/07/10 17:31:54;;;;;;;0.52;0.52;;;25.30;48.50;;;;;;5030724;28;20024;-77
2022/07/10 17:34:19;;;;;;;1.30;0.40;;;25.30;50.20;;;;;;5029912;28;20028;-77
2022/07/10 17:36:45;;;;;;;1.00;0.50;;;25.20;49.80;;;;;;5028806;28;20036;-77
2022/07/10 17:39:12;;;;;;;0.47;0.40;;;25.00;50.70;;;;;;5030253;28;20102;-75
2022/07/10 17:41:38;;;;;;;1.55;0.60;;;24.80;51.50;;;;;;5029165;28;20239;-75
2022/07/10 17:44:08;;;;;;;2.47;0.50;;;24.80;51.70;;;;;;5030309;28;20061;-74
2022/07/10 17:46:34;;;;;;;0.65;0.50;;;24.70;54.10;;;;;;5030945;28;20022;-75
2022/07/10 17:49:00;;;;;;;2.00;0.70;;;24.50;54.90;;;;;;5030114;28;20417;-75
2022/07/10 17:51:26;;;;;;;3.10;0.73;;;24.40;56.50;;;;;;5030405;28;20032;-75
2022/07/10 17:53:53;;;;;;;1.42;0.57;;;24.30;55.60;;;;;;5030560;28;20025;-75
2022/07/10 17:56:21;;;;;;;1.33;0.50;;;24.20;58.00;;;;;;5029737;28;20049;-75
2022/07/10 17:58:48;;;;;;;0.60;0.57;;;24.00;57.20;;;;;;5029351;28;20013;-75
2022/07/10 18:01:14;;;;;;;1.15;0.60;;;24.00;59.80;;;;;;5030072;28;20482;-75
2022/07/10 18:03:39;;;;;;;0.77;0.50;;;24.00;60.20;;;;;;5025032;28;20509;-75
2022/07/10 18:06:05;;;;;;;0.70;0.40;;;23.80;59.50;;;;;;5027150;28;20048;-76
2022/07/10 18:08:32;;;;;;;0.70;0.65;;;23.70;60.40;;;;;;5030140;28;20080;-75
2022/07/10 18:10:59;;;;;;;1.35;0.60;;;23.70;61.20;;;;;;5030493;28;20028;-75
2022/07/10 18:13:25;;;;;;;1.00;0.50;;;23.70;58.50;;;;;;5031983;23;20054;-74
2022/07/10 18:15:50;;;;;;;1.00;0.80;;;23.60;62.60;;;;;;5010374;28;20080;-73
2022/07/10 18:18:17;;;;;;;0.82;0.50;;;23.60;59.40;;;;;;5014197;28;20052;-73
2022/07/10 18:20:43;;;;;;;0.75;0.60;;;23.60;58.30;;;;;;5014002;28;20029;-73
2022/07/10 18:23:09;;;;;;;0.68;0.50;;;23.50;59.40;;;;;;5010862;28;20026;-74
2022/07/10 18:25:36;;;;;;;0.80;0.80;;;23.40;58.50;;;;;;5010852;28;20422;-73
2022/07/10 18:28:02;;;;;;;1.05;0.70;;;23.40;57.40;;;;;;5009699;28;20064;-74
2022/07/10 18:30:28;;;;;;;0.60;0.60;;;23.30;61.70;;;;;;5010249;28;20030;-74
2022/07/10 18:35:38;;;;;;;0.85;0.60;;;23.10;61.60;;;;;;4998069;28;20088;-74
2022/07/10 18:38:03;;;;;;;1.35;1.02;;;22.90;63.60;;;;;;5009649;28;20026;-74
2022/07/10 18:40:30;;;;;;;3.40;0.80;;;22.80;63.80;;;;;;5010094;28;20026;-74
2022/07/10 18:42:56;;;;;;;2.45;0.63;;;22.70;62.30;;;;;;5009073;28;20020;-74
2022/07/10 18:45:21;;;;;;;0.75;0.50;;;22.60;60.40;;;;;;5010114;28;20026;-74
2022/07/10 18:47:48;;;;;;;0.52;0.40;;;22.50;64.10;;;;;;5012698;28;20032;-74
2022/07/10 18:50:14;;;;;;;0.82;0.50;;;22.40;64.30;;;;;;5012559;28;20014;-75
2022/07/10 18:52:40;;;;;;;1.05;0.60;;;22.20;64.80;;;;;;4999014;28;20022;-73
2022/07/10 18:55:08;;;;;;;0.93;0.50;;;22.00;64.50;;;;;;5012028;28;20022;-74
2022/07/10 18:57:34;;;;;;;1.52;0.63;;;21.90;64.10;;;;;;5012738;28;20056;-74
2022/07/10 19:00:00;;;;;;;1.20;0.50;;;21.70;65.90;;;;;;5013607;28;20018;-74
2022/07/10 19:02:26;;;;;;;0.60;0.40;;;21.70;67.20;;;;;;5013616;28;20018;-73
2022/07/10 19:04:52;;;;;;;0.80;0.40;;;21.60;65.30;;;;;;5012819;28;20021;-74
2022/07/10 19:07:18;;;;;;;0.38;0.38;;;21.50;67.50;;;;;;5013992;28;20022;-74
2022/07/10 19:09:43;;;;;;;0.40;0.40;;;21.40;68.00;;;;;;5013912;28;20104;-74
2022/07/10 19:12:12;;;;;;;0.77;0.50;;;21.30;67.30;;;;;;5036884;22;20641;-76
2022/07/10 19:14:38;;;;;;;2.53;0.60;;;21.10;69.00;;;;;;5019097;28;20045;-75
2022/07/10 19:17:04;;;;;;;0.98;0.60;;;21.00;71.10;;;;;;5014345;28;20025;-75
2022/07/10 19:19:30;;;;;;;1.30;0.47;;;21.00;72.20;;;;;;5014452;28;20026;-76
2022/07/10 19:21:56;;;;;;;0.75;0.60;;;20.90;75.50;;;;;;5012412;28;20114;-75
2022/07/10 19:24:22;;;;;;;0.35;0.30;;;20.80;82.30;;;;;;5012772;28;20478;-75
2022/07/10 19:26:51;;;;;;;1.10;0.57;;;20.70;77.10;;;;;;5011504;28;20018;-75
2022/07/10 19:29:17;;;;;;;0.40;0.40;;;20.50;77.50;;;;;;4995533;28;20077;-75
2022/07/10 19:31:42;;;;;;;1.20;0.60;;;20.50;79.80;;;;;;5011192;28;20022;-75
2022/07/10 19:34:09;;;;;;;2.65;1.00;;;20.40;79.20;;;;;;5012807;28;20372;-75
2022/07/10 19:36:35;;;;;;;0.95;0.50;;;20.30;82.70;;;;;;5013053;28;20030;-76
2022/07/10 19:39:00;;;;;;;0.40;0.40;;;20.10;86.20;;;;;;5012911;28;20367;-75
2022/07/10 19:41:26;;;;;;;0.43;0.38;;;19.90;82.30;;;;;;4997881;28;20117;-76
2022/07/10 19:43:52;;;;;;;3.85;0.50;;;19.80;88.30;;;;;;4996664;28;20463;-81
2022/07/10 19:46:18;;;;;;;2.63;0.80;;;19.60;83.90;;;;;;5008609;28;20031;-83
2022/07/10 19:48:47;;;;;;;0.55;0.55;;;19.50;88.90;;;;;;5006377;28;20463;-85
2022/07/10 19:51:14;;;;;;;4.95;1.63;;;19.50;84.40;;;;;;5002766;28;20033;-84
2022/07/10 19:53:41;;;;;;;3.33;1.23;;;19.40;85.40;;;;;;5012699;28;20014;-81
2022/07/10 19:56:07;;;;;;;1.67;0.82;;;19.30;88.50;;;;;;5009654;28;20111;-86
2022/07/10 19:58:33;;;;;;;2.30;1.00;;;19.20;88.20;;;;;;5012462;28;20022;-88
2022/07/10 20:00:59;;;;;;;2.55;0.80;;;19.20;90.80;;;;;;5010244;28;20033;-89
2022/07/10 20:03:25;;;;;;;2.22;0.73;;;19.00;94.80;;;;;;5008989;28;20033;-92
2022/07/10 20:05:51;;;;;;;1.15;0.80;;;18.80;94.00;;;;;;4994588;28;20038;-84
2022/07/10 20:08:17;;;;;;;1.05;0.50;;;18.70;98.50;;;;;;5005427;28;20483;-83
2022/07/10 20:10:43;;;;;;;1.20;0.77;;;18.60;99.50;;;;;;5011461;28;20036;-83
2022/07/10 20:13:09;;;;;;;1.17;0.70;;;18.50;99.90;;;;;;5028929;23;20046;-82
2022/07/10 20:15:35;;;;;;;2.35;0.80;;;18.40;99.90;;;;;;5028753;28;20045;-83
2022/07/10 20:18:00;;;;;;;1.13;1.00;;;18.30;99.90;;;;;;5010383;28;20036;-86
2022/07/10 20:20:26;;;;;;;0.88;0.52;;;18.30;99.90;;;;;;5023487;28;20034;-85
2022/07/10 20:22:52;;;;;;;0.93;0.47;;;18.20;99.90;;;;;;5024490;28;20033;-84
2022/07/10 20:25:18;;;;;;;1.52;0.88;;;18.20;99.90;;;;;;5018906;28;20025;-81
2022/07/10 20:27:44;;;;;;;0.80;0.80;;;18.10;99.90;;;;;;5006723;28;20053;-82
2022/07/10 20:30:12;;;;;;;1.90;1.08;;;18.00;99.90;;;;;;4995032;28;20501;-82
2022/07/10 20:32:39;;;;;;;1.15;1.00;;;18.00;99.90;;;;;;5020663;28;20145;-85
2022/07/10 20:35:06;;;;;;;2.50;1.40;;;17.90;99.90;;;;;;5017684;28;20040;-83
2022/07/10 20:37:41;;;;;;;1.83;0.90;;;17.80;99.90;;;;;;5002791;28;20121;-84
2022/07/10 20:40:11;;;;;;;3.17;1.15;;;17.80;99.90;;;;;;5023800;28;20025;-85
2022/07/10 20:42:37;;;;;;;2.05;1.05;;;17.60;99.90;;;;;;4990048;28;20363;-86
2022/07/10 20:45:05;;;;;;;3.45;1.25;;;17.50;99.90;;;;;;5023004;28;20049;-86
2022/07/10 20:47:31;;;;;;;1.98;1.40;;;17.40;99.90;;;;;;5024353;28;20064;-86
2022/07/10 20:49:57;;;;;;;2.03;1.10;;;17.30;99.90;;;;;;5023145;28;20125;-89
2022/07/10 20:52:23;;;;;;;1.15;1.05;;;17.20;99.90;;;;;;5021459;28;20113;-85
2022/07/10 20:54:50;;;;;;;1.35;1.02;;;17.10;99.90;;;;;;5020619;28;20038;-86
2022/07/10 20:57:17;;;;;;;1.35;1.10;;;17.00;99.90;;;;;;5023530;28;20021;-85
2022/07/10 20:59:43;;;;;;;2.78;1.55;;;16.90;99.90;;;;;;5023225;28;20478;-83
2022/07/10 21:02:09;;;;;;;1.67;0.80;;;16.80;99.90;;;;;;4997633;28;20528;-83
2022/07/10 21:04:35;;;;;;;1.95;1.10;;;16.80;99.90;;;;;;5015627;28;20478;-83
2022/07/10 21:07:02;;;;;;;1.65;1.40;;;16.70;99.90;;;;;;5007942;28;20033;-82
2022/07/10 21:09:27;;;;;;;1.30;1.08;;;16.60;99.90;;;;;;5002355;28;20052;-81
2022/07/10 21:11:54;;;;;;;2.13;1.50;;;16.60;99.90;;;;;;5003482;28;20024;-81
2022/07/10 21:14:19;;;;;;;2.95;1.30;;;16.60;99.90;;;;;;5005269;28;20042;-80
2022/07/10 21:16:45;;;;;;;1.77;1.10;;;16.50;99.90;;;;;;5023218;28;20682;-83
2022/07/10 21:19:11;;;;;;;1.58;1.40;;;16.40;99.90;;;;;;5023503;28;20014;-84
2022/07/10 21:21:37;;;;;;;1.20;1.10;;;16.40;99.90;;;;;;5007819;28;20773;-82
2022/07/10 21:24:03;;;;;;;4.50;1.73;;;16.30;99.90;;;;;;5017054;28;20025;-81
2022/07/10 21:26:29;;;;;;;2.83;1.40;;;16.20;99.90;;;;;;5007643;28;20100;-83
2022/07/10 21:28:55;;;;;;;4.80;1.23;;;16.10;99.90;;;;;;5018039;28;20478;-80
2022/07/10 21:31:21;;;;;;;1.42;1.30;;;16.10;99.90;;;;;;4989031;28;20038;-82
2022/07/10 21:33:47;;;;;;;3.30;1.85;;;16.00;99.90;;;;;;5001379;28;20141;-82
2022/07/10 21:36:13;;;;;;;1.55;1.10;;;16.00;99.90;;;;;;4998412;28;20038;-80
2022/07/10 21:38:40;;;;;;;3.45;1.70;;;15.90;99.90;;;;;;4983070;28;20023;-82
2022/07/10 21:41:07;;;;;;;3.03;1.70;;;15.80;99.90;;;;;;4985706;28;20112;-82
2022/07/10 21:43:34;;;;;;;2.85;1.30;;;15.70;99.90;;;;;;5001911;28;20117;-84
2022/07/10 21:46:01;;;;;;;1.52;1.42;;;15.70;99.90;;;;;;4991721;28;20034;-83
2022/07/10 21:48:27;;;;;;;2.00;1.55;;;15.60;99.90;;;;;;4977187;28;20041;-83
2022/07/10 21:50:53;;;;;;;1.75;1.40;;;15.50;99.90;;;;;;4997840;28;20041;-86
2022/07/10 21:53:19;;;;;;;2.13;1.30;;;15.50;99.90;;;;;;4981245;28;20089;-82
2022/07/10 21:55:45;;;;;;;2.33;1.60;;;15.30;99.90;;;;;;5020982;28;20034;-82
2022/07/10 21:58:10;;;;;;;3.03;1.80;;;15.20;99.90;;;;;;4986242;28;20109;-82
2022/07/10 22:00:36;;;;;;;2.97;1.30;;;15.10;99.90;;;;;;4981330;28;20034;-83
2022/07/10 22:03:03;;;;;;;1.67;1.08;;;15.00;99.90;;;;;;4985080;28;20029;-81
2022/07/10 22:05:32;;;;;;;1.85;1.45;;;14.90;99.90;;;;;;4997302;28;20026;-83
2022/07/10 22:07:58;;;;;;;4.07;1.50;;;14.80;99.90;;;;;;5005572;28;20651;-81
2022/07/10 22:10:24;;;;;;;3.03;1.67;;;14.80;99.90;;;;;;5019667;28;20123;-87
2022/07/10 22:12:49;;;;;;;2.92;1.70;;;14.70;99.90;;;;;;5025488;23;20531;-79
2022/07/10 22:15:15;;;;;;;1.95;1.77;;;14.70;99.90;;;;;;5009856;28;20438;-80
2022/07/10 22:17:43;;;;;;;3.38;1.50;;;14.60;99.90;;;;;;5010324;28;20028;-81
2022/07/10 22:20:10;;;;;;;1.85;1.55;;;14.60;99.90;;;;;;5024367;28;20049;-82
2022/07/10 22:22:38;;;;;;;2.17;1.45;;;14.50;99.90;;;;;;5010923;28;20040;-81
2022/07/10 22:25:06;;;;;;;3.78;1.85;;;14.50;99.90;;;;;;5010762;28;20010;-81
2022/07/10 22:27:31;;;;;;;4.90;2.15;;;14.50;99.90;;;;;;5009988;28;20109;-81
2022/07/10 22:29:57;;;;;;;2.80;1.80;;;14.50;99.90;;;;;;5009645;28;20112;-81
2022/07/10 22:32:23;;;;;;;1.98;1.75;;;14.40;99.90;;;;;;5010566;28;20106;-81
2022/07/10 22:34:49;;;;;;;2.90;2.20;;;14.50;99.90;;;;;;5010301;28;20061;-81
2022/07/10 22:37:14;;;;;;;2.53;1.23;;;14.50;99.90;;;;;;5010191;28;20073;-81
2022/07/10 22:39:40;;;;;;;1.80;1.52;;;14.50;99.90;;;;;;5010544;28;20021;-81
2022/07/10 22:42:06;;;;;;;4.15;1.60;;;14.50;99.90;;;;;;5010127;28;20033;-80
2022/07/10 22:44:31;;;;;;;1.90;1.52;;;14.50;99.90;;;;;;5009696;28;20019;-81
2022/07/10 22:46:57;;;;;;;1.67;1.48;;;14.40;99.90;;;;;;5010575;28;20026;-81
2022/07/10 22:49:23;;;;;;;3.35;1.70;;;14.40;99.90;;;;;;5010294;28;20015;-81
2022/07/10 22:51:49;;;;;;;3.10;1.50;;;14.40;99.90;;;;;;5009926;28;20092;-81
2022/07/10 22:54:14;;;;;;;2.90;1.80;;;14.30;99.90;;;;;;5010387;28;20014;-81
2022/07/10 22:56:40;;;;;;;2.03;1.70;;;14.20;99.90;;;;;;5009977;28;20030;-81
2022/07/10 22:59:07;;;;;;;4.15;1.60;;;14.10;99.90;;;;;;5010168;28;20025;-81
2022/07/10 23:01:34;;;;;;;1.98;1.35;;;14.10;99.90;;;;;;5010616;28;20168;-80
2022/07/10 23:04:00;;;;;;;7.00;1.92;;;14.00;99.90;;;;;;5010219;28;20021;-81
2022/07/10 23:06:25;;;;;;;1.63;1.40;;;13.90;99.90;;;;;;5009900;28;20018;-81
2022/07/10 23:08:51;;;;;;;1.73;1.63;;;13.90;99.90;;;;;;5010371;28;20026;-81
2022/07/10 23:11:17;;;;;;;2.97;1.40;;;13.90;99.90;;;;;;5010004;28;20101;-81
2022/07/10 23:13:43;;;;;;;1.92;1.60;;;13.80;99.90;;;;;;5031441;22;20344;-77
2022/07/10 23:16:09;;;;;;;1.35;1.25;;;13.70;99.90;;;;;;5010699;28;20030;-76
2022/07/10 23:18:34;;;;;;;2.25;1.60;;;13.70;99.90;;;;;;5011146;28;20355;-77
2022/07/10 23:21:00;;;;;;;1.73;1.20;;;13.60;99.90;;;;;;5010937;28;20032;-76